Time;durP1;ratioP1;P1;durP2;ratioP2;P2;SDS_P1;SDS_P2;PMS_P1;PMS_P2;Temp;Humidity;BMP_temperature;BMP_pressure;BME280_temperature;BME280_humidity;BME280_pressure;Samples;Min_cycle;Max_cycle;Signal;HPM_P1;HPM_P2
2021/07/11 00:00:21;;;;;;;17.05;6.28;;;;;;;23.13;55.57;99718.25;5042036;28;20045;-64
2021/07/11 00:02:47;;;;;;;14.98;5.90;;;;;;;23.13;55.40;99718.25;5042368;28;20096;-64
2021/07/11 00:05:15;;;;;;;10.70;4.95;;;;;;;23.14;55.40;99715.28;5041828;28;20208;-64
2021/07/11 00:07:41;;;;;;;10.32;5.35;;;;;;;22.96;55.91;99710.13;5042301;28;20055;-64
2021/07/11 00:10:07;;;;;;;10.82;5.70;;;;;;;22.85;56.08;99701.00;5041794;28;20033;-64
2021/07/11 00:12:33;;;;;;;11.95;5.43;;;;;;;22.91;55.90;99712.72;5042246;28;20235;-64
2021/07/11 00:14:59;;;;;;;9.55;4.88;;;;;;;22.95;55.72;99707.66;5041966;28;20064;-64
2021/07/11 00:17:24;;;;;;;9.20;5.03;;;;;;;22.83;56.15;99710.41;5041799;28;20029;-64
2021/07/11 00:19:50;;;;;;;9.98;5.13;;;;;;;22.80;56.11;99706.31;5041878;28;20354;-64
2021/07/11 00:22:15;;;;;;;10.50;4.40;;;;;;;22.81;55.45;99705.25;5041821;28;20041;-64
2021/07/11 00:24:42;;;;;;;13.63;4.95;;;;;;;22.60;56.23;99705.91;5041879;28;20033;-64
2021/07/11 00:27:07;;;;;;;8.20;4.85;;;;;;;22.66;56.52;99710.34;5042136;28;20022;-64
2021/07/11 00:29:34;;;;;;;8.70;4.72;;;;;;;22.73;56.02;99694.81;5041895;28;20025;-64
2021/07/11 00:32:00;;;;;;;11.32;4.88;;;;;;;22.90;55.46;99695.72;5041802;28;20069;-64
2021/07/11 00:34:26;;;;;;;9.20;4.72;;;;;;;22.90;55.58;99697.59;5041772;28;20041;-64
2021/07/11 00:36:51;;;;;;;7.43;4.60;;;;;;;22.96;55.43;99699.31;5039082;28;20037;-64
2021/07/11 00:39:17;;;;;;;7.97;4.50;;;;;;;22.88;55.68;99697.00;5032533;28;20030;-64
2021/07/11 00:41:43;;;;;;;7.97;4.60;;;;;;;22.80;55.65;99698.22;5036232;28;20033;-64
2021/07/11 00:44:09;;;;;;;12.20;4.63;;;;;;;22.83;55.72;99699.59;5040102;28;20053;-64
2021/07/11 00:46:36;;;;;;;10.45;4.18;;;;;;;22.79;55.87;99691.13;5038094;28;20029;-65
2021/07/11 00:49:06;;;;;;;9.25;5.22;;;;;;;22.87;55.60;99698.88;5031755;28;20068;-64
2021/07/11 00:51:32;;;;;;;12.63;5.13;;;;;;;22.83;54.99;99697.72;5028472;28;20041;-64
2021/07/11 00:53:58;;;;;;;15.57;5.97;;;;;;;22.52;55.82;99700.88;5027414;28;20036;-64
2021/07/11 00:56:23;;;;;;;12.25;7.20;;;;;;;22.50;55.84;99698.44;5029460;28;20057;-64
2021/07/11 00:58:49;;;;;;;15.98;7.80;;;;;;;22.53;55.65;99705.22;5028955;28;20017;-65
2021/07/11 01:01:20;;;;;;;21.08;9.73;;;;;;;22.22;56.86;99696.53;5031375;28;20034;-64
2021/07/11 01:03:49;;;;;;;14.30;7.25;;;;;;;22.23;56.91;99698.16;5031213;28;20072;-64
2021/07/11 01:06:17;;;;;;;12.35;6.90;;;;;;;22.44;56.76;99702.09;5030503;28;20038;-64
2021/07/11 01:09:13;;;;;;;15.05;7.15;;;;;;;22.43;56.94;99702.34;5038110;28;20063;-64
2021/07/11 01:11:47;;;;;;;17.35;6.70;;;;;;;22.45;57.04;99702.91;5018692;28;20046;-64
2021/07/11 01:14:15;;;;;;;10.52;7.15;;;;;;;22.73;56.00;99699.38;5029942;28;20402;-64
2021/07/11 01:16:42;;;;;;;13.07;6.72;;;;;;;22.58;56.50;99699.91;5031555;28;20044;-64
2021/07/11 01:19:15;;;;;;;14.93;8.48;;;;;;;22.54;56.39;99710.38;5033908;28;20338;-64
2021/07/11 01:21:47;;;;;;;14.02;7.10;;;;;;;22.46;56.81;99697.28;5036113;28;20053;-65
2021/07/11 01:24:28;;;;;;;14.80;6.53;;;;;;;22.48;56.64;99697.84;5032167;28;20076;-64
2021/07/11 01:26:55;;;;;;;10.35;5.53;;;;;;;22.32;56.98;99697.78;5040969;28;20022;-64
2021/07/11 01:29:23;;;;;;;9.00;5.70;;;;;;;22.38;56.28;99694.13;5035313;28;20046;-64
2021/07/11 01:31:49;;;;;;;9.38;4.88;;;;;;;22.19;56.47;99697.00;5033871;28;20033;-64
2021/07/11 01:34:15;;;;;;;9.35;4.60;;;;;;;22.15;56.24;99698.53;5031187;28;20045;-64
2021/07/11 01:36:41;;;;;;;10.88;5.72;;;;;;;22.20;56.08;99700.53;5038004;28;20041;-64
2021/07/11 01:39:08;;;;;;;11.38;4.97;;;;;;;22.10;56.00;99698.44;5033935;28;20040;-64
2021/07/11 01:41:34;;;;;;;8.88;4.20;;;;;;;21.98;56.41;99687.66;5036199;28;20041;-64
2021/07/11 01:44:00;;;;;;;9.20;4.35;;;;;;;22.19;55.81;99688.09;5035500;28;20036;-64
2021/07/11 01:46:26;;;;;;;9.70;4.50;;;;;;;22.16;55.87;99697.50;5029487;28;20029;-64
2021/07/11 01:48:52;;;;;;;9.23;4.40;;;;;;;22.20;55.62;99695.13;5028789;28;20026;-64
2021/07/11 01:51:18;;;;;;;7.30;4.28;;;;;;;21.98;56.48;99698.44;5035754;28;20037;-64
2021/07/11 01:53:46;;;;;;;10.90;4.63;;;;;;;22.09;55.87;99696.00;5038292;28;20062;-64
2021/07/11 01:56:13;;;;;;;8.63;4.25;;;;;;;22.03;55.94;99692.38;5036139;28;20034;-64
2021/07/11 01:58:40;;;;;;;9.63;4.47;;;;;;;21.98;56.80;99705.72;5038129;28;20359;-64
2021/07/11 02:01:11;;;;;;;8.98;4.85;;;;;;;21.94;57.33;99707.25;5043250;28;20029;-64
2021/07/11 02:03:38;;;;;;;7.63;4.30;;;;;;;21.55;57.79;99698.81;5037799;28;20025;-64
2021/07/11 02:06:05;;;;;;;9.90;4.82;;;;;;;21.61;57.27;99708.66;5033483;28;20279;-64
2021/07/11 02:08:30;;;;;;;7.72;5.03;;;;;;;21.66;57.24;99713.31;5029143;28;20320;-64
2021/07/11 02:10:57;;;;;;;6.63;4.68;;;;;;;21.61;57.29;99719.41;5032031;28;20034;-64
2021/07/11 02:13:50;;;;;;;7.15;4.75;;;;;;;21.56;57.74;99711.22;5037024;28;20030;-64
2021/07/11 02:16:27;;;;;;;5.38;4.40;;;;;;;21.55;58.18;99720.34;5042726;28;20037;-64
2021/07/11 02:18:54;;;;;;;10.80;4.78;;;;;;;21.61;58.17;99713.22;5029945;28;20031;-64
2021/07/11 02:21:22;;;;;;;9.43;5.00;;;;;;;21.51;58.56;99718.38;5038066;28;20381;-64
2021/07/11 02:23:49;;;;;;;9.70;4.68;;;;;;;21.63;57.88;99711.94;5042643;28;20041;-64
2021/07/11 02:26:14;;;;;;;9.38;4.80;;;;;;;21.70;57.69;99708.28;5032322;28;20092;-64
2021/07/11 02:28:40;;;;;;;8.45;4.63;;;;;;;21.62;57.47;99704.91;5042532;28;20033;-64
2021/07/11 02:31:11;;;;;;;11.60;4.68;;;;;;;21.68;57.55;99705.81;5042592;28;20033;-64
2021/07/11 02:33:37;;;;;;;8.90;4.90;;;;;;;21.59;57.79;99699.16;5030348;28;20025;-64
2021/07/11 02:36:13;;;;;;;7.50;4.50;;;;;;;21.64;57.59;99704.66;5038318;28;20374;-64
2021/07/11 02:39:08;;;;;;;10.73;5.20;;;;;;;21.68;57.21;99711.22;5042698;28;20029;-64
2021/07/11 02:41:36;;;;;;;7.03;4.20;;;;;;;21.61;57.40;99703.25;5031385;28;20226;-64
2021/07/11 02:44:05;;;;;;;10.85;5.15;;;;;;;21.40;58.26;99694.94;5028519;28;20052;-64
2021/07/11 02:46:35;;;;;;;10.10;5.35;;;;;;;21.58;57.43;99703.72;5035681;28;20017;-64
2021/07/11 02:49:04;;;;;;;14.52;5.82;;;;;;;21.71;57.16;99704.53;5029482;28;20037;-64
2021/07/11 02:51:34;;;;;;;12.23;6.57;;;;;;;21.58;57.83;99706.41;5029307;28;20075;-64
2021/07/11 02:54:00;;;;;;;12.10;6.38;;;;;;;21.44;58.62;99702.31;5036389;28;20166;-64
2021/07/11 02:56:28;;;;;;;14.40;6.47;;;;;;;21.33;58.99;99705.81;5027324;28;20067;-64
2021/07/11 02:58:59;;;;;;;13.98;6.18;;;;;;;21.51;58.71;99707.59;5032636;28;20329;-64
2021/07/11 03:01:25;;;;;;;12.82;6.80;;;;;;;21.45;58.33;99677.03;5032955;28;20267;-64
2021/07/11 03:03:53;;;;;;;14.27;7.25;;;;;;;21.52;59.14;99706.53;5035624;28;20029;-64
2021/07/11 03:06:19;;;;;;;17.90;8.52;;;;;;;21.24;60.20;99715.31;5034112;28;20064;-64
2021/07/11 03:08:44;;;;;;;16.50;8.60;;;;;;;21.29;59.35;99715.44;5036478;28;20204;-65
2021/07/11 03:11:12;;;;;;;17.65;9.88;;;;;;;21.19;59.48;99718.66;5028592;28;20042;-64
2021/07/11 03:13:40;;;;;;;16.90;9.77;;;;;;;21.24;59.83;99716.13;5031506;28;20030;-64
2021/07/11 03:16:07;;;;;;;12.90;7.95;;;;;;;21.34;59.30;99712.84;5038184;28;20108;-64
2021/07/11 03:18:36;;;;;;;13.68;7.60;;;;;;;21.44;58.89;99723.88;5027125;28;20083;-64
2021/07/11 03:21:04;;;;;;;15.30;6.85;;;;;;;21.46;58.89;99729.84;5031806;28;20045;-64
2021/07/11 03:23:33;;;;;;;12.70;6.07;;;;;;;21.43;58.58;99733.00;5037934;28;20045;-64
2021/07/11 03:25:58;;;;;;;14.25;6.28;;;;;;;21.26;59.51;99732.03;5026050;28;20363;-64
2021/07/11 03:28:24;;;;;;;18.38;6.18;;;;;;;21.29;59.89;99723.50;5035978;28;20029;-64
2021/07/11 03:30:52;;;;;;;11.80;6.10;;;;;;;21.33;60.17;99725.50;5033748;28;20036;-64
2021/07/11 03:33:20;;;;;;;15.73;6.22;;;;;;;21.32;60.39;99733.81;5033773;28;20033;-64
2021/07/11 03:35:59;;;;;;;15.77;7.30;;;;;;;21.45;59.80;99730.91;5034218;28;20335;-64
2021/07/11 03:38:35;;;;;;;15.48;7.97;;;;;;;21.53;59.28;99740.50;5032309;28;20326;-64
2021/07/11 03:41:03;;;;;;;13.65;7.65;;;;;;;21.65;59.00;99735.94;5032026;28;20044;-64
2021/07/11 03:43:34;;;;;;;11.75;8.88;;;;;;;21.38;59.48;99738.25;5034035;28;20104;-64
2021/07/11 03:46:02;;;;;;;13.18;8.32;;;;;;;21.42;59.33;99736.75;5034855;28;20045;-64
2021/07/11 03:48:34;;;;;;;20.23;9.05;;;;;;;21.39;59.57;99734.53;5024570;28;20017;-64
2021/07/11 03:51:03;;;;;;;16.17;8.13;;;;;;;21.44;59.11;99739.22;5037793;28;20029;-64
2021/07/11 03:53:33;;;;;;;16.83;8.10;;;;;;;21.44;59.02;99739.22;5041370;28;20067;-64
2021/07/11 03:56:00;;;;;;;14.82;8.00;;;;;;;21.45;58.77;99738.16;5035658;28;20041;-64
2021/07/11 03:58:30;;;;;;;18.60;7.90;;;;;;;21.42;58.62;99739.44;5031901;28;20029;-64
2021/07/11 04:00:58;;;;;;;10.07;7.07;;;;;;;21.59;58.38;99745.78;5034625;28;20350;-64
2021/07/11 04:03:27;;;;;;;15.35;7.70;;;;;;;21.60;58.71;99743.91;5034134;28;20041;-64
2021/07/11 04:05:55;;;;;;;12.60;7.70;;;;;;;21.58;59.05;99744.13;5036448;28;20041;-64
2021/07/11 04:08:21;;;;;;;14.77;7.50;;;;;;;21.75;59.17;99746.13;5031766;28;20041;-64
2021/07/11 04:10:48;;;;;;;16.95;7.50;;;;;;;21.67;59.57;99745.44;5033574;28;20370;-64
2021/07/11 04:13:15;;;;;;;14.82;7.43;;;;;;;21.73;59.58;99740.97;5029786;28;20055;-65
2021/07/11 04:15:43;;;;;;;13.48;7.47;;;;;;;21.63;60.30;99748.81;5025409;28;20335;-64
2021/07/11 04:18:13;;;;;;;15.32;7.53;;;;;;;21.90;59.75;99747.31;5032830;28;20247;-65
2021/07/11 04:20:42;;;;;;;14.85;7.05;;;;;;;22.21;58.45;99753.41;5031010;28;20033;-64
2021/07/11 04:23:09;;;;;;;17.55;7.18;;;;;;;22.05;58.52;99743.34;5029742;28;20100;-64
2021/07/11 04:25:41;;;;;;;16.27;6.97;;;;;;;22.15;58.63;99747.09;5035301;28;20111;-64
2021/07/11 04:28:08;;;;;;;21.08;7.28;;;;;;;22.26;57.94;99754.34;5034122;28;20033;-64
2021/07/11 04:30:36;;;;;;;13.63;7.35;;;;;;;22.48;57.11;99749.13;5027372;28;20033;-64
2021/07/11 04:33:02;;;;;;;10.13;6.32;;;;;;;22.58;56.38;99738.53;5028552;28;20049;-65
2021/07/11 04:35:29;;;;;;;11.65;6.38;;;;;;;22.79;55.47;99733.50;5219200;22;20042;-65
2021/07/11 04:37:55;;;;;;;11.25;6.20;;;;;;;23.16;54.22;99753.69;5038607;28;20251;-66
2021/07/11 04:40:21;;;;;;;9.02;6.40;;;;;;;23.15;54.69;99757.44;5041721;28;20328;-66
2021/07/11 04:42:46;;;;;;;12.60;5.72;;;;;;;23.31;54.30;99757.72;5041856;28;20023;-66
2021/07/11 04:45:12;;;;;;;9.63;4.97;;;;;;;23.42;53.75;99760.31;5044154;28;20318;-66
2021/07/11 04:47:38;;;;;;;8.48;5.10;;;;;;;23.70;52.39;99759.44;5045728;28;20029;-66
2021/07/11 04:50:06;;;;;;;9.30;6.15;;;;;;;23.63;52.45;99763.38;5045314;28;20061;-66
2021/07/11 04:52:32;;;;;;;9.20;5.55;;;;;;;23.93;51.28;99757.59;5045713;28;20060;-66
2021/07/11 04:54:57;;;;;;;9.60;5.68;;;;;;;23.95;51.27;99761.72;5045488;28;20311;-66
2021/07/11 04:57:23;;;;;;;9.55;5.00;;;;;;;24.04;50.79;99757.53;5045563;28;20253;-66
2021/07/11 04:59:49;;;;;;;12.93;5.40;;;;;;;24.44;50.28;99761.88;5045136;28;20060;-66
2021/07/11 05:02:14;;;;;;;11.43;5.45;;;;;;;24.88;49.76;99751.78;5045529;28;20021;-66
2021/07/11 05:04:40;;;;;;;8.80;4.80;;;;;;;25.31;48.45;99755.50;5045256;28;20330;-66
2021/07/11 05:07:05;;;;;;;8.50;5.10;;;;;;;25.74;47.12;99744.47;5045125;28;20226;-66
2021/07/11 05:09:30;;;;;;;12.55;4.85;;;;;;;26.25;45.75;99747.50;5045736;28;20055;-66
2021/07/11 05:11:56;;;;;;;10.55;4.70;;;;;;;26.31;45.52;99748.31;5045438;28;20352;-66
2021/07/11 05:14:21;;;;;;;7.45;5.00;;;;;;;26.43;44.70;99751.66;5044057;28;20246;-66
2021/07/11 05:16:47;;;;;;;9.25;5.00;;;;;;;26.30;44.93;99749.41;5044861;28;20326;-66
2021/07/11 05:19:12;;;;;;;10.32;4.63;;;;;;;26.53;44.57;99759.03;5045191;28;20091;-66
2021/07/11 05:21:38;;;;;;;9.23;4.55;;;;;;;26.58;43.00;99746.28;5045281;28;20021;-66
2021/07/11 05:24:03;;;;;;;10.10;4.18;;;;;;;26.88;42.81;99744.72;5044856;28;20041;-67
2021/07/11 05:26:29;;;;;;;11.05;4.80;;;;;;;26.97;42.34;99749.41;5045463;28;20033;-67
2021/07/11 05:28:55;;;;;;;7.82;4.63;;;;;;;27.35;41.33;99739.13;5044668;28;20037;-67
2021/07/11 05:31:20;;;;;;;9.10;4.65;;;;;;;27.23;40.92;99741.28;5045316;28;20040;-67
2021/07/11 05:33:46;;;;;;;13.50;4.00;;;;;;;27.30;40.66;99741.84;5044832;28;20033;-67
2021/07/11 05:36:12;;;;;;;6.40;4.03;;;;;;;27.65;40.33;99738.31;5044455;28;20331;-67
2021/07/11 05:38:38;;;;;;;11.05;4.70;;;;;;;27.69;40.22;99736.66;5044872;28;20219;-67
2021/07/11 05:41:05;;;;;;;14.15;4.18;;;;;;;27.67;39.69;99738.84;5045013;28;20349;-67
2021/07/11 05:43:30;;;;;;;9.35;4.30;;;;;;;27.83;39.52;99736.91;5044495;28;20033;-67
2021/07/11 05:45:56;;;;;;;11.65;4.80;;;;;;;28.14;38.61;99735.75;5043305;28;20365;-67
2021/07/11 05:48:22;;;;;;;7.05;4.43;;;;;;;28.65;37.11;99738.28;5038907;28;20244;-67
2021/07/11 05:50:47;;;;;;;11.73;3.72;;;;;;;28.68;36.77;99747.81;5040084;28;20050;-66
2021/07/11 05:53:13;;;;;;;8.88;3.90;;;;;;;28.76;36.32;99709.88;5039764;28;20031;-67
2021/07/11 05:55:40;;;;;;;9.63;3.95;;;;;;;28.75;35.90;99737.41;5037322;28;20037;-66
2021/07/11 05:58:06;;;;;;;10.15;4.22;;;;;;;29.04;36.40;99732.88;5038685;28;20342;-66
2021/07/11 06:00:32;;;;;;;8.73;4.45;;;;;;;29.43;35.41;99727.44;5037699;28;20665;-66
2021/07/11 06:02:57;;;;;;;9.77;4.10;;;;;;;29.86;34.49;99731.09;5038406;28;20025;-67
2021/07/11 06:05:23;;;;;;;11.27;4.05;;;;;;;30.00;33.35;99730.41;5039634;28;20042;-67
2021/07/11 06:07:48;;;;;;;7.43;3.75;;;;;;;29.96;33.50;99729.34;5037788;28;20025;-67
2021/07/11 06:10:15;;;;;;;10.13;3.70;;;;;;;29.77;33.32;99721.09;5039585;28;20203;-67
2021/07/11 06:12:40;;;;;;;6.38;3.60;;;;;;;30.13;33.42;99732.47;5038209;28;20071;-67
2021/07/11 06:15:07;;;;;;;7.80;4.38;;;;;;;29.99;32.67;99729.59;5038579;28;20037;-67
2021/07/11 06:17:33;;;;;;;6.90;3.83;;;;;;;30.04;32.68;99734.22;5040301;28;20223;-66
2021/07/11 06:20:00;;;;;;;7.07;3.80;;;;;;;30.04;32.83;99726.03;5042806;28;20374;-67
2021/07/11 06:22:25;;;;;;;10.40;4.07;;;;;;;30.29;32.15;99733.13;5040222;28;20029;-67
2021/07/11 06:24:51;;;;;;;4.78;3.67;;;;;;;30.66;31.85;99732.38;5039378;28;20033;-67
2021/07/11 06:27:16;;;;;;;6.68;4.30;;;;;;;30.71;30.93;99730.41;5038127;28;20386;-67
2021/07/11 06:29:42;;;;;;;10.02;3.92;;;;;;;31.04;30.52;99724.97;5038221;28;20029;-67
2021/07/11 06:32:07;;;;;;;11.90;3.97;;;;;;;31.18;31.41;99712.19;5038742;28;20211;-67
2021/07/11 06:34:33;;;;;;;4.70;3.80;;;;;;;31.66;30.77;99712.75;5037792;28;20036;-67
2021/07/11 06:36:58;;;;;;;7.32;4.05;;;;;;;31.98;29.74;99719.28;5038968;28;20059;-67
2021/07/11 06:39:24;;;;;;;10.10;3.75;;;;;;;31.71;30.17;99720.09;5037895;28;20456;-67
2021/07/11 06:41:49;;;;;;;8.63;3.65;;;;;;;31.78;29.90;99716.94;5037260;28;20029;-67
2021/07/11 06:44:15;;;;;;;10.63;4.30;;;;;;;31.73;29.70;99713.19;5038896;28;20103;-67
2021/07/11 06:46:40;;;;;;;11.15;3.95;;;;;;;32.10;29.38;99714.13;5037729;28;20029;-67
2021/07/11 06:49:06;;;;;;;8.82;3.80;;;;;;;32.37;29.59;99716.06;5039012;28;20048;-67
2021/07/11 06:51:32;;;;;;;6.82;3.65;;;;;;;32.68;28.63;99708.78;5038298;28;20029;-67
2021/07/11 06:53:57;;;;;;;6.82;3.95;;;;;;;32.49;29.13;99708.13;5037383;28;20330;-67
2021/07/11 06:56:23;;;;;;;15.27;4.20;;;;;;;32.76;29.11;99715.47;5039352;28;20036;-67
2021/07/11 06:58:48;;;;;;;8.13;3.40;;;;;;;32.68;28.63;99710.72;5042315;28;20041;-67
2021/07/11 07:01:14;;;;;;;7.72;3.55;;;;;;;32.90;27.74;99719.00;5040957;28;20041;-67
2021/07/11 07:03:39;;;;;;;11.90;4.00;;;;;;;32.99;28.24;99710.84;5039010;28;20021;-67
2021/07/11 07:06:09;;;;;;;8.85;4.25;;;;;;;32.91;27.19;99720.63;5030875;28;20040;-67
2021/07/11 07:08:34;;;;;;;8.00;3.80;;;;;;;33.29;28.24;99715.63;5036764;28;20029;-67
2021/07/11 07:11:00;;;;;;;11.18;4.07;;;;;;;33.42;26.77;99719.44;5038763;28;20052;-67
2021/07/11 07:13:26;;;;;;;8.52;3.78;;;;;;;33.80;27.54;99710.72;5037006;28;20064;-67
2021/07/11 07:15:51;;;;;;;12.35;5.13;;;;;;;33.80;26.39;99703.31;5037431;28;20252;-67
2021/07/11 07:18:17;;;;;;;11.00;4.28;;;;;;;33.98;26.24;99709.69;5038966;28;20030;-67
2021/07/11 07:20:42;;;;;;;6.78;3.90;;;;;;;34.00;26.38;99703.88;5036895;28;20030;-67
2021/07/11 07:23:08;;;;;;;13.75;4.32;;;;;;;34.24;26.39;99705.09;5037165;28;20033;-67
2021/07/11 07:25:33;;;;;;;8.80;4.20;;;;;;;34.54;25.94;99708.09;5038290;28;20222;-67
2021/07/11 07:27:59;;;;;;;12.27;4.25;;;;;;;34.60;25.86;99709.56;5036923;28;20105;-67
2021/07/11 07:30:24;;;;;;;8.05;4.68;;;;;;;34.80;25.63;99702.63;5038340;28;20037;-67
2021/07/11 07:32:50;;;;;;;8.48;4.18;;;;;;;35.00;24.81;99701.19;5036617;28;20035;-67
2021/07/11 07:35:18;;;;;;;7.85;4.32;;;;;;;35.16;24.97;99694.03;5036379;28;20036;-67
2021/07/11 07:37:46;;;;;;;9.77;5.05;;;;;;;34.89;25.40;99692.44;5038193;28;20026;-67
2021/07/11 07:40:17;;;;;;;9.98;4.65;;;;;;;35.25;25.10;99689.31;5036518;28;20059;-67
2021/07/11 07:42:44;;;;;;;8.68;4.97;;;;;;;35.30;24.41;99699.34;5035615;28;20033;-67
2021/07/11 07:45:10;;;;;;;5.68;4.97;;;;;;;35.49;24.63;99699.84;5037424;28;20048;-67
2021/07/11 07:47:35;;;;;;;15.63;4.97;;;;;;;35.46;25.08;99698.56;5036624;28;20029;-67
2021/07/11 07:50:00;;;;;;;8.10;4.82;;;;;;;35.49;25.54;99697.91;5036392;28;20045;-67
2021/07/11 07:52:26;;;;;;;10.00;5.57;;;;;;;35.24;26.06;99695.16;5038013;28;20043;-67
2021/07/11 07:54:51;;;;;;;6.72;5.43;;;;;;;35.42;25.97;99694.03;5036121;28;20348;-67
2021/07/11 07:57:18;;;;;;;10.95;4.70;;;;;;;35.59;25.07;99693.16;5037723;28;20048;-67
2021/07/11 07:59:44;;;;;;;13.45;4.32;;;;;;;35.52;25.86;99696.44;5036242;28;20041;-67
2021/07/11 08:02:09;;;;;;;9.25;4.88;;;;;;;35.61;25.13;99688.94;5036359;28;20048;-67
2021/07/11 08:04:34;;;;;;;8.32;4.32;;;;;;;35.69;24.83;99681.78;5037489;28;20265;-67
2021/07/11 08:07:00;;;;;;;15.38;5.03;;;;;;;35.85;24.80;99682.06;5036515;28;20029;-67
2021/07/11 08:09:25;;;;;;;7.20;5.20;;;;;;;35.45;25.70;99693.38;5036563;28;20035;-67
2021/07/11 08:11:51;;;;;;;6.18;4.75;;;;;;;35.72;25.25;99683.88;5036012;28;20296;-67
2021/07/11 08:14:16;;;;;;;9.52;5.50;;;;;;;35.80;25.08;99685.78;5036104;28;20087;-67
2021/07/11 08:16:42;;;;;;;15.35;4.78;;;;;;;35.74;24.91;99676.91;5037633;28;20043;-67
2021/07/11 08:19:09;;;;;;;12.52;5.18;;;;;;;36.06;25.18;99683.72;5035524;28;20025;-67
2021/07/11 08:21:34;;;;;;;8.77;4.78;;;;;;;35.77;24.92;99681.75;5033635;28;20018;-67
2021/07/11 08:24:00;;;;;;;14.48;4.70;;;;;;;35.92;25.59;99680.41;5035793;28;20051;-67
2021/07/11 08:26:26;;;;;;;6.88;4.65;;;;;;;35.86;25.38;99673.47;5035204;28;20029;-67
2021/07/11 08:28:51;;;;;;;10.48;5.28;;;;;;;36.33;23.48;99670.63;5037471;28;20302;-67
2021/07/11 08:31:17;;;;;;;10.75;4.80;;;;;;;36.93;23.61;99674.88;5036125;28;20049;-67
2021/07/11 08:33:42;;;;;;;10.13;5.10;;;;;;;36.55;23.77;99669.50;5037911;28;20032;-67
2021/07/11 08:36:07;;;;;;;6.93;4.40;;;;;;;36.49;23.24;99659.84;5035651;28;20091;-67
2021/07/11 08:38:33;;;;;;;9.57;4.03;;;;;;;36.82;22.83;99663.47;5039423;28;20033;-67
2021/07/11 08:40:58;;;;;;;19.85;5.53;;;;;;;36.23;23.92;99659.97;5040979;28;20029;-67
2021/07/11 08:43:24;;;;;;;6.82;4.38;;;;;;;35.77;24.04;99656.94;5036379;28;20281;-67
2021/07/11 08:45:50;;;;;;;9.00;4.03;;;;;;;36.20;23.47;99655.13;5034677;28;20079;-67
2021/07/11 08:48:16;;;;;;;7.53;4.68;;;;;;;36.19;22.71;99643.28;5036822;28;20040;-67
2021/07/11 08:50:41;;;;;;;8.43;5.25;;;;;;;36.53;23.10;99650.53;5036066;28;20033;-67
2021/07/11 08:53:12;;;;;;;15.80;9.10;;;;;;;36.82;24.03;99646.09;5037173;28;20262;-67
2021/07/11 08:55:37;;;;;;;12.07;5.65;;;;;;;37.07;23.15;99640.31;5036546;28;20029;-67
2021/07/11 08:58:03;;;;;;;15.90;6.85;;;;;;;37.17;22.21;99633.56;5035626;28;20040;-67
2021/07/11 09:00:34;;;;;;;10.13;5.00;;;;;;;37.28;21.93;99636.72;5036745;28;20036;-67
2021/07/11 09:03:01;;;;;;;10.75;5.00;;;;;;;37.09;22.58;99632.50;5031617;28;20070;-68
2021/07/11 09:05:39;;;;;;;11.23;5.18;;;;;;;37.39;21.95;99635.94;5025953;28;20026;-68
2021/07/11 09:08:14;;;;;;;9.90;4.05;;;;;;;36.83;23.81;99642.19;5034023;28;20030;-67
2021/07/11 09:10:49;;;;;;;6.78;4.63;;;;;;;35.93;23.13;99621.41;5033117;28;20029;-67
2021/07/11 09:13:18;;;;;;;6.30;4.47;;;;;;;35.70;24.81;99633.81;5036472;28;20044;-67
2021/07/11 09:15:50;;;;;;;7.82;4.97;;;;;;;34.88;26.61;99630.31;5018145;28;20022;-67
2021/07/11 09:18:25;;;;;;;7.82;4.88;;;;;;;34.66;26.93;99634.03;5036622;28;20045;-67
2021/07/11 09:20:55;;;;;;;12.57;5.32;;;;;;;34.38;26.15;99621.75;5036669;28;20022;-67
2021/07/11 09:23:22;;;;;;;10.00;5.00;;;;;;;35.11;25.13;99617.16;5035291;28;20053;-67
2021/07/11 09:26:05;;;;;;;10.93;4.93;;;;;;;34.97;24.49;99611.84;5034859;28;20250;-67
2021/07/11 09:28:32;;;;;;;8.50;5.63;;;;;;;34.98;24.55;99615.41;5032859;28;20034;-67
2021/07/11 09:31:05;;;;;;;8.32;4.72;;;;;;;35.18;24.68;99609.19;5038771;28;20231;-67
2021/07/11 09:33:31;;;;;;;8.38;5.45;;;;;;;35.28;24.65;99606.09;5039132;28;20072;-67
2021/07/11 09:36:15;;;;;;;11.32;5.97;;;;;;;34.91;24.68;99610.41;5038795;28;20323;-67
2021/07/11 09:38:45;;;;;;;7.68;5.13;;;;;;;34.46;25.95;99618.19;5055008;28;20075;-67
2021/07/11 09:41:19;;;;;;;6.93;5.53;;;;;;;34.31;26.31;99605.66;5042517;28;20075;-67
2021/07/11 09:43:45;;;;;;;11.82;6.18;;;;;;;34.01;27.41;99615.66;5039462;28;20371;-67
2021/07/11 09:46:13;;;;;;;7.57;5.43;;;;;;;33.76;27.34;99608.13;5040024;28;20026;-67
2021/07/11 09:48:38;;;;;;;12.30;5.82;;;;;;;33.52;26.84;99603.06;5037380;28;20218;-67
2021/07/11 09:51:14;;;;;;;8.60;5.55;;;;;;;33.83;26.96;99601.09;5040389;28;20037;-67
2021/07/11 09:53:39;;;;;;;9.98;5.20;;;;;;;33.73;26.60;99598.59;5040394;28;20235;-67
2021/07/11 09:56:05;;;;;;;9.50;5.45;;;;;;;34.04;27.12;99598.53;5038573;28;20097;-67
2021/07/11 09:58:32;;;;;;;8.85;5.45;;;;;;;33.84;28.22;99591.72;5038946;28;20326;-67
2021/07/11 10:00:57;;;;;;;8.02;5.60;;;;;;;33.04;28.79;99587.28;5039727;28;20033;-67
2021/07/11 10:03:23;;;;;;;8.98;5.55;;;;;;;33.20;28.29;99587.69;5038363;28;20247;-67
2021/07/11 10:05:49;;;;;;;8.45;5.75;;;;;;;32.99;28.13;99585.47;5039348;28;20244;-67
2021/07/11 10:08:14;;;;;;;9.43;6.20;;;;;;;32.83;28.96;99588.94;5038343;28;20068;-67
2021/07/11 10:10:41;;;;;;;8.27;5.63;;;;;;;32.79;29.47;99582.47;5038024;28;20029;-67
2021/07/11 10:13:08;;;;;;;9.43;5.70;;;;;;;32.65;29.39;99577.00;5039714;28;20510;-67
2021/07/11 10:15:36;;;;;;;8.60;5.68;;;;;;;32.78;28.53;99589.06;5038194;28;20030;-67
2021/07/11 10:18:03;;;;;;;8.93;5.35;;;;;;;32.76;28.25;99585.78;5036002;28;20075;-67
2021/07/11 10:20:56;;;;;;;9.32;5.90;;;;;;;32.75;28.20;99584.97;5039599;28;20208;-67
2021/07/11 10:23:33;;;;;;;10.02;6.10;;;;;;;32.95;28.52;99581.75;5038916;28;20037;-67
2021/07/11 10:26:12;;;;;;;9.30;5.65;;;;;;;33.27;27.89;99580.63;5029842;28;20072;-67
2021/07/11 10:28:40;;;;;;;42.35;7.38;;;;;;;32.99;29.18;99581.94;5038898;28;20091;-67
2021/07/11 10:31:20;;;;;;;43.83;7.63;;;;;;;32.63;27.87;99577.31;5036779;28;20025;-67
2021/07/11 10:33:47;;;;;;;9.32;5.63;;;;;;;33.00;27.58;99567.09;5039115;28;20112;-67
2021/07/11 10:36:13;;;;;;;7.53;4.95;;;;;;;32.87;28.66;99579.78;5042348;28;20096;-67
2021/07/11 10:38:51;;;;;;;6.57;4.82;;;;;;;32.54;30.39;99565.50;5039141;28;20092;-67
2021/07/11 10:41:18;;;;;;;6.78;5.40;;;;;;;32.06;29.99;99566.00;5038631;28;20333;-67
2021/07/11 10:44:04;;;;;;;7.22;5.55;;;;;;;32.10;29.14;99563.47;5037133;28;20033;-67
2021/07/11 10:46:37;;;;;;;18.42;6.05;;;;;;;32.28;29.05;99559.81;5046788;28;20028;-67
2021/07/11 10:49:14;;;;;;;11.20;5.70;;;;;;;31.96;28.32;99558.03;5038629;28;20441;-67
2021/07/11 10:51:54;;;;;;;10.35;5.53;;;;;;;32.30;29.61;99557.56;5039157;28;20037;-67
2021/07/11 10:54:35;;;;;;;7.78;5.10;;;;;;;32.25;28.74;99552.22;5038893;28;20061;-66
2021/07/11 10:57:12;;;;;;;8.80;4.70;;;;;;;32.03;28.19;99552.94;5038871;28;20367;-66
2021/07/11 10:59:45;;;;;;;9.85;5.00;;;;;;;32.26;28.49;99547.53;5037216;28;20311;-67
2021/07/11 11:02:18;;;;;;;10.95;5.72;;;;;;;32.38;28.81;99545.06;5042429;28;20038;-66
2021/07/11 11:04:45;;;;;;;5.57;4.63;;;;;;;32.47;29.40;99550.59;5040430;28;20231;-66
2021/07/11 11:07:14;;;;;;;8.05;5.20;;;;;;;32.25;29.35;99543.16;5037398;28;20029;-66
2021/07/11 11:09:46;;;;;;;8.85;5.15;;;;;;;32.07;29.17;99539.44;5038078;28;20036;-66
2021/07/11 11:12:21;;;;;;;10.27;5.07;;;;;;;31.89;28.35;99534.91;5037211;28;20325;-66
2021/07/11 11:14:58;;;;;;;8.98;5.28;;;;;;;32.25;29.26;99532.19;5036770;28;20037;-67
2021/07/11 11:17:36;;;;;;;14.25;4.78;;;;;;;32.16;29.15;99525.81;5035145;28;20037;-67
2021/07/11 11:20:08;;;;;;;11.45;5.35;;;;;;;32.12;30.48;99519.31;5037047;28;20049;-67
2021/07/11 11:22:34;;;;;;;8.82;5.30;;;;;;;32.19;28.85;99509.56;5040359;28;20311;-66
2021/07/11 11:25:00;;;;;;;14.65;5.47;;;;;;;32.23;28.51;99515.22;5041522;28;20253;-67
2021/07/11 11:27:33;;;;;;;9.82;4.88;;;;;;;32.26;28.13;99511.94;5038076;28;20033;-67
2021/07/11 11:30:19;;;;;;;12.43;4.95;;;;;;;32.42;28.13;99512.38;5027524;28;20045;-67
2021/07/11 11:32:54;;;;;;;6.70;5.10;;;;;;;32.35;28.89;99499.91;5036668;28;20369;-67